Terminal Aerodrome Forecast
Issued by NWS

Home | Current Version | Previous Version | Text Only | Print | Product List | Glossary On
Versions: 1 2 3 4 5 6 7 8 9 10 11 12
627
FTUS45 KABQ 201125
TAFLVS
TAF
KLVS 201125Z 2012/2112 24022G32KT P6SM FEW050
     FM210100 21009KT P6SM SCT060
     FM210700 08008KT P6SM SCT025
      TEMPO 2108/2112 BKN020=

USA.gov is the U.S. government's official web portal to all federal, state and local government web resources and services.